Terminal Aerodrome Forecast
Issued by NWS Sioux Falls, SD

Current Version | Previous Version | Text Only | Print | Product List | Glossary On
Versions: 1 2 3 4 5 6 7 8 9 10 11 12 13 14 15 16
000
FTUS43 KFSD 302344
TAFSUX
TAF
KSUX 302344Z 3100/3124 07004KT P6SM SCT035 BKN250
     FM310400 07004KT P6SM BKN250
     FM310800 VRB03KT 5SM BR SCT250
      TEMPO 3111/3113 2SM BR
     FM311400 05004KT P6SM BKN250=

USA.gov is the U.S. government's official web portal to all federal, state and local government web resources and services.